sensor_id;sensor_type;location;lat;lon;timestamp;P1;durP1;ratioP1;P2;durP2;ratioP2
8654;SDS011;13500;52.514;13.462;2023-07-31T00:02:04;3.20;;;1.90;;
8654;SDS011;13500;52.514;13.462;2023-07-31T00:04:33;4.93;;;2.27;;
8654;SDS011;13500;52.514;13.462;2023-07-31T00:07:00;4.90;;;2.50;;
8654;SDS011;13500;52.514;13.462;2023-07-31T00:09:30;5.60;;;2.37;;
8654;SDS011;13500;52.514;13.462;2023-07-31T00:12:00;4.53;;;2.40;;
8654;SDS011;13500;52.514;13.462;2023-07-31T00:14:28;4.67;;;2.20;;
8654;SDS011;13500;52.514;13.462;2023-07-31T00:16:56;4.07;;;1.97;;
8654;SDS011;13500;52.514;13.462;2023-07-31T00:19:24;5.90;;;2.40;;
8654;SDS011;13500;52.514;13.462;2023-07-31T00:21:52;5.33;;;2.43;;
8654;SDS011;13500;52.514;13.462;2023-07-31T00:24:19;3.87;;;1.93;;
8654;SDS011;13500;52.514;13.462;2023-07-31T00:26:47;6.30;;;2.40;;
8654;SDS011;13500;52.514;13.462;2023-07-31T00:29:17;4.23;;;2.00;;
8654;SDS011;13500;52.514;13.462;2023-07-31T00:31:44;5.03;;;2.03;;
8654;SDS011;13500;52.514;13.462;2023-07-31T00:34:12;5.27;;;3.00;;
8654;SDS011;13500;52.514;13.462;2023-07-31T00:36:39;3.53;;;2.27;;
8654;SDS011;13500;52.514;13.462;2023-07-31T00:39:07;6.53;;;2.30;;
8654;SDS011;13500;52.514;13.462;2023-07-31T00:41:35;4.73;;;2.10;;
8654;SDS011;13500;52.514;13.462;2023-07-31T00:44:03;4.20;;;2.40;;
8654;SDS011;13500;52.514;13.462;2023-07-31T00:46:34;5.07;;;2.00;;
8654;SDS011;13500;52.514;13.462;2023-07-31T00:49:02;2.93;;;2.03;;
8654;SDS011;13500;52.514;13.462;2023-07-31T00:51:30;5.77;;;2.10;;
8654;SDS011;13500;52.514;13.462;2023-07-31T00:53:58;4.83;;;2.07;;
8654;SDS011;13500;52.514;13.462;2023-07-31T00:56:27;4.80;;;2.40;;
8654;SDS011;13500;52.514;13.462;2023-07-31T00:58:55;4.20;;;2.13;;
8654;SDS011;13500;52.514;13.462;2023-07-31T01:01:23;4.97;;;2.10;;
8654;SDS011;13500;52.514;13.462;2023-07-31T01:03:52;3.87;;;2.30;;
8654;SDS011;13500;52.514;13.462;2023-07-31T01:06:22;4.93;;;2.43;;
8654;SDS011;13500;52.514;13.462;2023-07-31T01:08:58;4.83;;;2.27;;
8654;SDS011;13500;52.514;13.462;2023-07-31T01:11:30;3.90;;;2.07;;
8654;SDS011;13500;52.514;13.462;2023-07-31T01:13:59;4.87;;;2.40;;
8654;SDS011;13500;52.514;13.462;2023-07-31T01:16:27;4.87;;;2.60;;
8654;SDS011;13500;52.514;13.462;2023-07-31T01:18:56;4.33;;;2.23;;
8654;SDS011;13500;52.514;13.462;2023-07-31T01:21:50;4.37;;;2.20;;
8654;SDS011;13500;52.514;13.462;2023-07-31T01:24:33;3.50;;;2.13;;
8654;SDS011;13500;52.514;13.462;2023-07-31T01:27:06;3.90;;;2.30;;
8654;SDS011;13500;52.514;13.462;2023-07-31T01:29:37;3.47;;;2.30;;
8654;SDS011;13500;52.514;13.462;2023-07-31T01:32:09;4.10;;;2.40;;
8654;SDS011;13500;52.514;13.462;2023-07-31T01:34:38;4.10;;;2.47;;
8654;SDS011;13500;52.514;13.462;2023-07-31T01:37:07;5.87;;;2.20;;
8654;SDS011;13500;52.514;13.462;2023-07-31T01:39:35;2.23;;;1.90;;
8654;SDS011;13500;52.514;13.462;2023-07-31T01:42:03;5.53;;;2.50;;
8654;SDS011;13500;52.514;13.462;2023-07-31T01:44:33;3.40;;;2.50;;
8654;SDS011;13500;52.514;13.462;2023-07-31T01:47:02;7.10;;;2.80;;
8654;SDS011;13500;52.514;13.462;2023-07-31T01:49:30;4.43;;;2.67;;
8654;SDS011;13500;52.514;13.462;2023-07-31T01:51:58;4.23;;;2.40;;
8654;SDS011;13500;52.514;13.462;2023-07-31T01:54:26;3.07;;;2.23;;
8654;SDS011;13500;52.514;13.462;2023-07-31T01:56:54;3.67;;;2.37;;
8654;SDS011;13500;52.514;13.462;2023-07-31T01:59:22;5.23;;;2.77;;
8654;SDS011;13500;52.514;13.462;2023-07-31T02:01:51;3.63;;;2.53;;
8654;SDS011;13500;52.514;13.462;2023-07-31T02:04:20;3.77;;;2.40;;
8654;SDS011;13500;52.514;13.462;2023-07-31T02:06:48;2.97;;;2.13;;
8654;SDS011;13500;52.514;13.462;2023-07-31T02:09:16;5.43;;;2.40;;
8654;SDS011;13500;52.514;13.462;2023-07-31T02:11:44;4.10;;;2.17;;
8654;SDS011;13500;52.514;13.462;2023-07-31T02:14:12;3.17;;;2.40;;
8654;SDS011;13500;52.514;13.462;2023-07-31T02:16:40;3.90;;;2.40;;
8654;SDS011;13500;52.514;13.462;2023-07-31T02:19:11;4.00;;;2.40;;
8654;SDS011;13500;52.514;13.462;2023-07-31T02:21:39;5.60;;;2.33;;
8654;SDS011;13500;52.514;13.462;2023-07-31T02:24:08;4.57;;;2.30;;
8654;SDS011;13500;52.514;13.462;2023-07-31T02:26:37;5.33;;;2.73;;
8654;SDS011;13500;52.514;13.462;2023-07-31T02:29:05;3.70;;;2.50;;
8654;SDS011;13500;52.514;13.462;2023-07-31T02:31:33;2.90;;;2.50;;
8654;SDS011;13500;52.514;13.462;2023-07-31T02:34:01;6.67;;;2.60;;
8654;SDS011;13500;52.514;13.462;2023-07-31T02:36:30;2.97;;;2.50;;
8654;SDS011;13500;52.514;13.462;2023-07-31T02:38:58;6.10;;;2.50;;
8654;SDS011;13500;52.514;13.462;2023-07-31T02:41:26;2.77;;;2.30;;
8654;SDS011;13500;52.514;13.462;2023-07-31T02:43:54;3.37;;;2.57;;
8654;SDS011;13500;52.514;13.462;2023-07-31T02:46:22;4.73;;;2.80;;
8654;SDS011;13500;52.514;13.462;2023-07-31T02:48:51;5.40;;;3.20;;
8654;SDS011;13500;52.514;13.462;2023-07-31T02:51:19;5.53;;;2.43;;
8654;SDS011;13500;52.514;13.462;2023-07-31T02:53:49;3.77;;;2.70;;
8654;SDS011;13500;52.514;13.462;2023-07-31T02:56:17;4.93;;;2.93;;
8654;SDS011;13500;52.514;13.462;2023-07-31T02:58:45;6.60;;;2.90;;
8654;SDS011;13500;52.514;13.462;2023-07-31T03:01:13;5.13;;;2.90;;
8654;SDS011;13500;52.514;13.462;2023-07-31T03:03:42;3.90;;;3.30;;
8654;SDS011;13500;52.514;13.462;2023-07-31T03:06:11;4.67;;;2.80;;
8654;SDS011;13500;52.514;13.462;2023-07-31T03:08:38;5.40;;;3.20;;
8654;SDS011;13500;52.514;13.462;2023-07-31T03:11:08;5.53;;;3.30;;
8654;SDS011;13500;52.514;13.462;2023-07-31T03:13:36;4.70;;;3.37;;
8654;SDS011;13500;52.514;13.462;2023-07-31T03:16:04;6.30;;;3.70;;
8654;SDS011;13500;52.514;13.462;2023-07-31T03:18:32;6.10;;;3.53;;
8654;SDS011;13500;52.514;13.462;2023-07-31T03:21:00;5.40;;;3.93;;
8654;SDS011;13500;52.514;13.462;2023-07-31T03:23:30;9.10;;;4.00;;
8654;SDS011;13500;52.514;13.462;2023-07-31T03:25:58;7.83;;;4.13;;
8654;SDS011;13500;52.514;13.462;2023-07-31T03:28:29;5.67;;;4.30;;
8654;SDS011;13500;52.514;13.462;2023-07-31T03:30:57;10.37;;;4.37;;
8654;SDS011;13500;52.514;13.462;2023-07-31T03:33:25;4.70;;;3.67;;
8654;SDS011;13500;52.514;13.462;2023-07-31T03:35:53;5.17;;;3.70;;
8654;SDS011;13500;52.514;13.462;2023-07-31T03:38:21;8.63;;;4.53;;
8654;SDS011;13500;52.514;13.462;2023-07-31T03:40:49;4.47;;;3.40;;
8654;SDS011;13500;52.514;13.462;2023-07-31T03:43:17;6.33;;;3.80;;
8654;SDS011;13500;52.514;13.462;2023-07-31T03:45:46;4.63;;;3.60;;
8654;SDS011;13500;52.514;13.462;2023-07-31T03:48:14;6.27;;;3.77;;
8654;SDS011;13500;52.514;13.462;2023-07-31T03:50:43;5.30;;;3.50;;
8654;SDS011;13500;52.514;13.462;2023-07-31T03:53:11;5.20;;;3.90;;
8654;SDS011;13500;52.514;13.462;2023-07-31T03:55:39;6.23;;;4.00;;
8654;SDS011;13500;52.514;13.462;2023-07-31T03:58:07;6.17;;;4.27;;
8654;SDS011;13500;52.514;13.462;2023-07-31T04:00:35;7.43;;;3.67;;
8654;SDS011;13500;52.514;13.462;2023-07-31T04:03:04;7.53;;;3.63;;
8654;SDS011;13500;52.514;13.462;2023-07-31T04:05:32;5.40;;;3.70;;
8654;SDS011;13500;52.514;13.462;2023-07-31T04:08:00;4.50;;;3.73;;
8654;SDS011;13500;52.514;13.462;2023-07-31T04:10:28;8.17;;;3.80;;
8654;SDS011;13500;52.514;13.462;2023-07-31T04:12:57;7.87;;;4.00;;
8654;SDS011;13500;52.514;13.462;2023-07-31T04:15:25;5.13;;;3.83;;
8654;SDS011;13500;52.514;13.462;2023-07-31T04:17:53;4.60;;;3.47;;
8654;SDS011;13500;52.514;13.462;2023-07-31T04:20:23;4.50;;;3.73;;
8654;SDS011;13500;52.514;13.462;2023-07-31T04:22:51;6.17;;;3.77;;
8654;SDS011;13500;52.514;13.462;2023-07-31T04:25:19;7.23;;;3.73;;
8654;SDS011;13500;52.514;13.462;2023-07-31T04:27:46;9.73;;;4.27;;
8654;SDS011;13500;52.514;13.462;2023-07-31T04:30:14;5.17;;;3.60;;
8654;SDS011;13500;52.514;13.462;2023-07-31T04:32:42;4.83;;;3.70;;
8654;SDS011;13500;52.514;13.462;2023-07-31T04:35:10;3.50;;;3.20;;
8654;SDS011;13500;52.514;13.462;2023-07-31T04:37:40;8.17;;;4.00;;
8654;SDS011;13500;52.514;13.462;2023-07-31T04:40:08;5.83;;;3.70;;
8654;SDS011;13500;52.514;13.462;2023-07-31T04:42:36;5.73;;;3.57;;
8654;SDS011;13500;52.514;13.462;2023-07-31T04:45:04;6.97;;;3.83;;
8654;SDS011;13500;52.514;13.462;2023-07-31T04:47:33;6.10;;;3.77;;
8654;SDS011;13500;52.514;13.462;2023-07-31T04:50:01;6.63;;;4.10;;
8654;SDS011;13500;52.514;13.462;2023-07-31T04:52:29;7.33;;;3.90;;
8654;SDS011;13500;52.514;13.462;2023-07-31T04:54:58;6.57;;;3.63;;
8654;SDS011;13500;52.514;13.462;2023-07-31T04:57:26;6.40;;;3.77;;
8654;SDS011;13500;52.514;13.462;2023-07-31T04:59:54;8.00;;;4.00;;
8654;SDS011;13500;52.514;13.462;2023-07-31T05:02:22;7.83;;;4.20;;
8654;SDS011;13500;52.514;13.462;2023-07-31T05:04:51;4.67;;;3.70;;
8654;SDS011;13500;52.514;13.462;2023-07-31T05:07:19;7.43;;;3.93;;
8654;SDS011;13500;52.514;13.462;2023-07-31T05:09:47;5.37;;;3.90;;
8654;SDS011;13500;52.514;13.462;2023-07-31T05:12:16;6.43;;;4.00;;
8654;SDS011;13500;52.514;13.462;2023-07-31T05:14:44;10.53;;;4.10;;
8654;SDS011;13500;52.514;13.462;2023-07-31T05:17:12;6.47;;;3.90;;
8654;SDS011;13500;52.514;13.462;2023-07-31T05:19:40;6.40;;;3.63;;
8654;SDS011;13500;52.514;13.462;2023-07-31T05:22:08;8.33;;;3.97;;
8654;SDS011;13500;52.514;13.462;2023-07-31T05:24:36;8.93;;;3.70;;
8654;SDS011;13500;52.514;13.462;2023-07-31T05:27:04;4.63;;;3.70;;
8654;SDS011;13500;52.514;13.462;2023-07-31T05:29:34;7.73;;;3.90;;
8654;SDS011;13500;52.514;13.462;2023-07-31T05:32:02;6.23;;;3.87;;
8654;SDS011;13500;52.514;13.462;2023-07-31T05:34:30;6.97;;;3.57;;
8654;SDS011;13500;52.514;13.462;2023-07-31T05:36:58;4.90;;;3.43;;
8654;SDS011;13500;52.514;13.462;2023-07-31T05:39:26;5.00;;;3.37;;
8654;SDS011;13500;52.514;13.462;2023-07-31T05:41:54;6.73;;;3.30;;
8654;SDS011;13500;52.514;13.462;2023-07-31T05:44:22;5.17;;;3.60;;
8654;SDS011;13500;52.514;13.462;2023-07-31T05:46:52;5.20;;;2.97;;
8654;SDS011;13500;52.514;13.462;2023-07-31T05:49:20;5.77;;;2.77;;
8654;SDS011;13500;52.514;13.462;2023-07-31T05:51:48;6.37;;;3.17;;
8654;SDS011;13500;52.514;13.462;2023-07-31T05:54:15;5.07;;;3.23;;
8654;SDS011;13500;52.514;13.462;2023-07-31T05:56:43;6.10;;;3.60;;
8654;SDS011;13500;52.514;13.462;2023-07-31T05:59:12;6.03;;;3.30;;
8654;SDS011;13500;52.514;13.462;2023-07-31T06:01:40;6.10;;;3.40;;
8654;SDS011;13500;52.514;13.462;2023-07-31T06:04:09;6.10;;;2.90;;
8654;SDS011;13500;52.514;13.462;2023-07-31T06:06:37;5.73;;;3.07;;
8654;SDS011;13500;52.514;13.462;2023-07-31T06:09:06;4.53;;;3.07;;
8654;SDS011;13500;52.514;13.462;2023-07-31T06:11:34;5.00;;;3.07;;
8654;SDS011;13500;52.514;13.462;2023-07-31T06:14:02;6.97;;;3.50;;
8654;SDS011;13500;52.514;13.462;2023-07-31T06:16:29;7.27;;;3.07;;
8654;SDS011;13500;52.514;13.462;2023-07-31T06:18:58;5.43;;;3.07;;
8654;SDS011;13500;52.514;13.462;2023-07-31T06:21:27;6.00;;;3.07;;
8654;SDS011;13500;52.514;13.462;2023-07-31T06:23:56;4.87;;;3.20;;
8654;SDS011;13500;52.514;13.462;2023-07-31T06:26:24;6.10;;;3.40;;
8654;SDS011;13500;52.514;13.462;2023-07-31T06:28:52;6.20;;;3.40;;
8654;SDS011;13500;52.514;13.462;2023-07-31T06:31:20;7.30;;;3.50;;
8654;SDS011;13500;52.514;13.462;2023-07-31T06:33:49;7.87;;;3.40;;
8654;SDS011;13500;52.514;13.462;2023-07-31T06:36:18;7.53;;;3.20;;
8654;SDS011;13500;52.514;13.462;2023-07-31T06:38:47;9.20;;;3.60;;
8654;SDS011;13500;52.514;13.462;2023-07-31T06:41:15;7.47;;;3.23;;
8654;SDS011;13500;52.514;13.462;2023-07-31T06:43:43;5.60;;;3.10;;
8654;SDS011;13500;52.514;13.462;2023-07-31T06:46:11;6.97;;;3.20;;
8654;SDS011;13500;52.514;13.462;2023-07-31T06:48:40;7.57;;;3.20;;
8654;SDS011;13500;52.514;13.462;2023-07-31T06:51:07;6.60;;;3.40;;
8654;SDS011;13500;52.514;13.462;2023-07-31T06:53:36;7.00;;;3.20;;
8654;SDS011;13500;52.514;13.462;2023-07-31T06:56:05;6.17;;;3.00;;
8654;SDS011;13500;52.514;13.462;2023-07-31T06:58:33;4.90;;;2.83;;
8654;SDS011;13500;52.514;13.462;2023-07-31T07:01:01;4.10;;;2.70;;
8654;SDS011;13500;52.514;13.462;2023-07-31T07:03:29;4.90;;;2.90;;
8654;SDS011;13500;52.514;13.462;2023-07-31T07:05:57;5.67;;;3.20;;
8654;SDS011;13500;52.514;13.462;2023-07-31T07:08:25;6.13;;;3.00;;
8654;SDS011;13500;52.514;13.462;2023-07-31T07:10:53;5.93;;;3.07;;
8654;SDS011;13500;52.514;13.462;2023-07-31T07:13:22;4.60;;;2.93;;
8654;SDS011;13500;52.514;13.462;2023-07-31T07:15:51;7.50;;;2.80;;
8654;SDS011;13500;52.514;13.462;2023-07-31T07:18:19;5.50;;;2.60;;
8654;SDS011;13500;52.514;13.462;2023-07-31T07:20:49;9.20;;;3.00;;
8654;SDS011;13500;52.514;13.462;2023-07-31T07:23:17;5.93;;;3.23;;
8654;SDS011;13500;52.514;13.462;2023-07-31T07:25:46;6.00;;;3.07;;
8654;SDS011;13500;52.514;13.462;2023-07-31T07:28:14;5.77;;;3.17;;
8654;SDS011;13500;52.514;13.462;2023-07-31T07:30:44;4.53;;;2.83;;
8654;SDS011;13500;52.514;13.462;2023-07-31T07:33:12;5.87;;;3.33;;
8654;SDS011;13500;52.514;13.462;2023-07-31T07:35:40;3.90;;;2.70;;
8654;SDS011;13500;52.514;13.462;2023-07-31T07:38:08;3.40;;;2.77;;
8654;SDS011;13500;52.514;13.462;2023-07-31T07:40:38;5.50;;;2.67;;
8654;SDS011;13500;52.514;13.462;2023-07-31T07:43:06;6.20;;;2.93;;
8654;SDS011;13500;52.514;13.462;2023-07-31T07:45:34;5.63;;;2.87;;
8654;SDS011;13500;52.514;13.462;2023-07-31T07:48:06;6.13;;;2.87;;
8654;SDS011;13500;52.514;13.462;2023-07-31T07:50:34;4.17;;;2.70;;
8654;SDS011;13500;52.514;13.462;2023-07-31T07:53:02;3.80;;;2.80;;
8654;SDS011;13500;52.514;13.462;2023-07-31T07:55:30;4.67;;;2.80;;
8654;SDS011;13500;52.514;13.462;2023-07-31T07:57:57;4.70;;;2.57;;
8654;SDS011;13500;52.514;13.462;2023-07-31T08:00:25;4.33;;;2.83;;
8654;SDS011;13500;52.514;13.462;2023-07-31T08:02:53;4.97;;;2.83;;
8654;SDS011;13500;52.514;13.462;2023-07-31T08:05:25;5.47;;;3.00;;
8654;SDS011;13500;52.514;13.462;2023-07-31T08:07:53;4.23;;;3.10;;
8654;SDS011;13500;52.514;13.462;2023-07-31T08:10:21;5.70;;;2.67;;
8654;SDS011;13500;52.514;13.462;2023-07-31T08:12:49;5.77;;;2.73;;
8654;SDS011;13500;52.514;13.462;2023-07-31T08:15:17;4.20;;;2.30;;
8654;SDS011;13500;52.514;13.462;2023-07-31T08:17:45;4.13;;;3.23;;
8654;SDS011;13500;52.514;13.462;2023-07-31T08:20:13;3.10;;;2.40;;
8654;SDS011;13500;52.514;13.462;2023-07-31T08:22:42;4.43;;;3.00;;
8654;SDS011;13500;52.514;13.462;2023-07-31T08:25:11;2.70;;;2.23;;
8654;SDS011;13500;52.514;13.462;2023-07-31T08:27:42;3.50;;;2.30;;
8654;SDS011;13500;52.514;13.462;2023-07-31T08:30:11;4.40;;;2.47;;
8654;SDS011;13500;52.514;13.462;2023-07-31T08:32:39;3.23;;;2.37;;
8654;SDS011;13500;52.514;13.462;2023-07-31T08:35:07;2.97;;;2.17;;
8654;SDS011;13500;52.514;13.462;2023-07-31T08:37:35;4.90;;;2.60;;
8654;SDS011;13500;52.514;13.462;2023-07-31T08:40:05;3.57;;;2.23;;
8654;SDS011;13500;52.514;13.462;2023-07-31T08:42:34;3.50;;;2.30;;
8654;SDS011;13500;52.514;13.462;2023-07-31T08:45:02;2.93;;;2.43;;
8654;SDS011;13500;52.514;13.462;2023-07-31T08:47:31;2.80;;;2.43;;
8654;SDS011;13500;52.514;13.462;2023-07-31T08:49:59;4.77;;;2.27;;
8654;SDS011;13500;52.514;13.462;2023-07-31T08:52:29;5.90;;;2.77;;
8654;SDS011;13500;52.514;13.462;2023-07-31T08:54:57;3.20;;;2.30;;
8654;SDS011;13500;52.514;13.462;2023-07-31T08:57:27;3.33;;;2.70;;
8654;SDS011;13500;52.514;13.462;2023-07-31T08:59:55;4.60;;;2.80;;
8654;SDS011;13500;52.514;13.462;2023-07-31T09:02:24;5.13;;;2.80;;
8654;SDS011;13500;52.514;13.462;2023-07-31T09:04:54;4.77;;;2.93;;
8654;SDS011;13500;52.514;13.462;2023-07-31T09:07:22;5.23;;;2.33;;
8654;SDS011;13500;52.514;13.462;2023-07-31T09:09:51;3.27;;;2.73;;
8654;SDS011;13500;52.514;13.462;2023-07-31T09:12:19;3.57;;;2.60;;
8654;SDS011;13500;52.514;13.462;2023-07-31T09:14:49;2.93;;;2.00;;
8654;SDS011;13500;52.514;13.462;2023-07-31T09:17:28;4.37;;;2.20;;
8654;SDS011;13500;52.514;13.462;2023-07-31T09:19:56;2.83;;;2.10;;
8654;SDS011;13500;52.514;13.462;2023-07-31T09:22:33;4.13;;;2.53;;
8654;SDS011;13500;52.514;13.462;2023-07-31T09:25:05;3.30;;;2.23;;
8654;SDS011;13500;52.514;13.462;2023-07-31T09:27:48;3.07;;;2.77;;
8654;SDS011;13500;52.514;13.462;2023-07-31T09:30:18;2.60;;;2.20;;
8654;SDS011;13500;52.514;13.462;2023-07-31T09:32:47;3.63;;;2.40;;
8654;SDS011;13500;52.514;13.462;2023-07-31T09:35:20;3.87;;;2.40;;
8654;SDS011;13500;52.514;13.462;2023-07-31T09:37:49;2.83;;;1.90;;
8654;SDS011;13500;52.514;13.462;2023-07-31T09:40:25;2.87;;;2.10;;
8654;SDS011;13500;52.514;13.462;2023-07-31T09:42:57;3.00;;;1.83;;
8654;SDS011;13500;52.514;13.462;2023-07-31T09:45:27;3.37;;;2.23;;
8654;SDS011;13500;52.514;13.462;2023-07-31T09:48:08;2.53;;;1.87;;
8654;SDS011;13500;52.514;13.462;2023-07-31T09:50:37;2.57;;;2.03;;
8654;SDS011;13500;52.514;13.462;2023-07-31T09:53:05;2.43;;;2.07;;
8654;SDS011;13500;52.514;13.462;2023-07-31T09:55:34;2.07;;;1.77;;
8654;SDS011;13500;52.514;13.462;2023-07-31T09:58:03;1.90;;;1.60;;
8654;SDS011;13500;52.514;13.462;2023-07-31T10:00:33;2.30;;;1.70;;
8654;SDS011;13500;52.514;13.462;2023-07-31T10:03:04;2.00;;;1.60;;
8654;SDS011;13500;52.514;13.462;2023-07-31T10:05:34;1.67;;;1.57;;
8654;SDS011;13500;52.514;13.462;2023-07-31T10:08:02;3.10;;;1.83;;
8654;SDS011;13500;52.514;13.462;2023-07-31T10:10:31;2.93;;;1.90;;
8654;SDS011;13500;52.514;13.462;2023-07-31T10:12:59;3.23;;;2.37;;
8654;SDS011;13500;52.514;13.462;2023-07-31T10:15:28;3.40;;;2.40;;
8654;SDS011;13500;52.514;13.462;2023-07-31T10:17:58;3.50;;;2.30;;
8654;SDS011;13500;52.514;13.462;2023-07-31T10:20:26;3.27;;;2.60;;
8654;SDS011;13500;52.514;13.462;2023-07-31T10:22:55;4.73;;;3.17;;
8654;SDS011;13500;52.514;13.462;2023-07-31T10:25:24;3.83;;;3.23;;
8654;SDS011;13500;52.514;13.462;2023-07-31T10:27:52;6.37;;;3.07;;
8654;SDS011;13500;52.514;13.462;2023-07-31T10:30:22;5.17;;;3.20;;
8654;SDS011;13500;52.514;13.462;2023-07-31T10:32:52;4.40;;;3.03;;
8654;SDS011;13500;52.514;13.462;2023-07-31T10:35:22;4.67;;;3.60;;
8654;SDS011;13500;52.514;13.462;2023-07-31T10:37:50;6.43;;;3.87;;
8654;SDS011;13500;52.514;13.462;2023-07-31T10:40:20;6.40;;;4.43;;
8654;SDS011;13500;52.514;13.462;2023-07-31T10:42:52;5.73;;;4.00;;
8654;SDS011;13500;52.514;13.462;2023-07-31T10:45:24;6.17;;;3.83;;
8654;SDS011;13500;52.514;13.462;2023-07-31T10:48:02;6.33;;;4.00;;
8654;SDS011;13500;52.514;13.462;2023-07-31T10:50:33;4.17;;;3.60;;
8654;SDS011;13500;52.514;13.462;2023-07-31T10:53:05;5.47;;;3.80;;
8654;SDS011;13500;52.514;13.462;2023-07-31T10:55:38;5.07;;;3.53;;
8654;SDS011;13500;52.514;13.462;2023-07-31T10:58:08;6.40;;;3.13;;
8654;SDS011;13500;52.514;13.462;2023-07-31T11:00:37;5.63;;;3.80;;
8654;SDS011;13500;52.514;13.462;2023-07-31T11:03:06;6.13;;;3.57;;
8654;SDS011;13500;52.514;13.462;2023-07-31T11:05:44;5.03;;;3.50;;
8654;SDS011;13500;52.514;13.462;2023-07-31T11:08:13;4.67;;;3.47;;
8654;SDS011;13500;52.514;13.462;2023-07-31T11:10:43;4.87;;;3.20;;
8654;SDS011;13500;52.514;13.462;2023-07-31T11:13:13;4.27;;;3.33;;
8654;SDS011;13500;52.514;13.462;2023-07-31T11:15:42;4.77;;;3.23;;
8654;SDS011;13500;52.514;13.462;2023-07-31T11:18:10;6.00;;;3.40;;
8654;SDS011;13500;52.514;13.462;2023-07-31T11:20:38;5.40;;;3.00;;
8654;SDS011;13500;52.514;13.462;2023-07-31T11:23:08;5.33;;;3.67;;
8654;SDS011;13500;52.514;13.462;2023-07-31T11:25:37;3.67;;;3.27;;
8654;SDS011;13500;52.514;13.462;2023-07-31T11:28:08;4.97;;;3.47;;
8654;SDS011;13500;52.514;13.462;2023-07-31T11:30:38;5.10;;;3.77;;
8654;SDS011;13500;52.514;13.462;2023-07-31T11:33:08;5.37;;;3.60;;
8654;SDS011;13500;52.514;13.462;2023-07-31T11:35:41;6.23;;;3.20;;
8654;SDS011;13500;52.514;13.462;2023-07-31T11:38:16;4.00;;;3.40;;
8654;SDS011;13500;52.514;13.462;2023-07-31T11:40:49;5.50;;;3.30;;
8654;SDS011;13500;52.514;13.462;2023-07-31T11:43:17;5.03;;;3.20;;
8654;SDS011;13500;52.514;13.462;2023-07-31T11:45:46;3.60;;;2.80;;
8654;SDS011;13500;52.514;13.462;2023-07-31T11:48:18;5.50;;;3.30;;
8654;SDS011;13500;52.514;13.462;2023-07-31T11:50:48;4.17;;;3.20;;
8654;SDS011;13500;52.514;13.462;2023-07-31T11:53:18;5.53;;;3.30;;
8654;SDS011;13500;52.514;13.462;2023-07-31T11:55:56;4.87;;;3.20;;
8654;SDS011;13500;52.514;13.462;2023-07-31T11:58:25;4.47;;;3.27;;
8654;SDS011;13500;52.514;13.462;2023-07-31T12:00:53;6.53;;;3.80;;
8654;SDS011;13500;52.514;13.462;2023-07-31T12:03:21;5.53;;;3.17;;
8654;SDS011;13500;52.514;13.462;2023-07-31T12:05:50;4.97;;;3.00;;
8654;SDS011;13500;52.514;13.462;2023-07-31T12:08:20;5.50;;;3.53;;
8654;SDS011;13500;52.514;13.462;2023-07-31T12:10:49;5.53;;;3.23;;
8654;SDS011;13500;52.514;13.462;2023-07-31T12:13:20;5.53;;;3.30;;
8654;SDS011;13500;52.514;13.462;2023-07-31T12:15:53;4.03;;;3.07;;
8654;SDS011;13500;52.514;13.462;2023-07-31T12:18:21;5.70;;;3.10;;
8654;SDS011;13500;52.514;13.462;2023-07-31T12:20:53;3.87;;;3.07;;
8654;SDS011;13500;52.514;13.462;2023-07-31T12:23:23;6.77;;;2.93;;
8654;SDS011;13500;52.514;13.462;2023-07-31T12:26:01;4.60;;;3.30;;
8654;SDS011;13500;52.514;13.462;2023-07-31T12:28:29;5.10;;;3.37;;
8654;SDS011;13500;52.514;13.462;2023-07-31T12:30:58;4.93;;;3.30;;
8654;SDS011;13500;52.514;13.462;2023-07-31T12:33:30;3.30;;;3.00;;
8654;SDS011;13500;52.514;13.462;2023-07-31T12:36:00;3.77;;;2.90;;
8654;SDS011;13500;52.514;13.462;2023-07-31T12:38:30;3.83;;;3.03;;
8654;SDS011;13500;52.514;13.462;2023-07-31T12:40:58;6.00;;;2.90;;
8654;SDS011;13500;52.514;13.462;2023-07-31T12:43:26;4.27;;;2.80;;
8654;SDS011;13500;52.514;13.462;2023-07-31T12:45:54;4.27;;;3.13;;
8654;SDS011;13500;52.514;13.462;2023-07-31T12:48:22;5.90;;;3.10;;
8654;SDS011;13500;52.514;13.462;2023-07-31T12:50:50;5.33;;;3.00;;
8654;SDS011;13500;52.514;13.462;2023-07-31T12:53:18;4.40;;;3.13;;
8654;SDS011;13500;52.514;13.462;2023-07-31T12:55:48;3.83;;;2.63;;
8654;SDS011;13500;52.514;13.462;2023-07-31T12:58:16;4.40;;;3.00;;
8654;SDS011;13500;52.514;13.462;2023-07-31T13:00:44;3.67;;;2.70;;
8654;SDS011;13500;52.514;13.462;2023-07-31T13:03:12;3.73;;;2.30;;
8654;SDS011;13500;52.514;13.462;2023-07-31T13:05:40;3.80;;;2.40;;
8654;SDS011;13500;52.514;13.462;2023-07-31T13:08:09;6.40;;;2.50;;
8654;SDS011;13500;52.514;13.462;2023-07-31T13:10:38;5.10;;;2.60;;
8654;SDS011;13500;52.514;13.462;2023-07-31T13:13:07;3.53;;;2.53;;
8654;SDS011;13500;52.514;13.462;2023-07-31T13:15:36;2.37;;;1.90;;
8654;SDS011;13500;52.514;13.462;2023-07-31T13:18:04;5.87;;;2.30;;
8654;SDS011;13500;52.514;13.462;2023-07-31T13:20:32;4.60;;;2.40;;
8654;SDS011;13500;52.514;13.462;2023-07-31T13:23:00;5.63;;;2.43;;
8654;SDS011;13500;52.514;13.462;2023-07-31T13:25:28;2.80;;;2.23;;
8654;SDS011;13500;52.514;13.462;2023-07-31T13:27:56;5.13;;;2.60;;
8654;SDS011;13500;52.514;13.462;2023-07-31T13:30:30;5.67;;;2.30;;
8654;SDS011;13500;52.514;13.462;2023-07-31T13:32:58;6.93;;;2.53;;
8654;SDS011;13500;52.514;13.462;2023-07-31T13:35:25;3.37;;;2.93;;
8654;SDS011;13500;52.514;13.462;2023-07-31T13:37:53;4.00;;;2.77;;
8654;SDS011;13500;52.514;13.462;2023-07-31T13:40:21;3.33;;;2.70;;
8654;SDS011;13500;52.514;13.462;2023-07-31T13:42:49;3.90;;;3.07;;
8654;SDS011;13500;52.514;13.462;2023-07-31T13:45:17;4.13;;;2.83;;
8654;SDS011;13500;52.514;13.462;2023-07-31T13:47:47;5.53;;;3.03;;
8654;SDS011;13500;52.514;13.462;2023-07-31T13:50:15;5.40;;;3.30;;
8654;SDS011;13500;52.514;13.462;2023-07-31T13:52:43;5.13;;;3.10;;
8654;SDS011;13500;52.514;13.462;2023-07-31T13:55:11;3.60;;;3.30;;
8654;SDS011;13500;52.514;13.462;2023-07-31T13:57:39;6.57;;;3.23;;
8654;SDS011;13500;52.514;13.462;2023-07-31T14:00:07;4.60;;;3.17;;
8654;SDS011;13500;52.514;13.462;2023-07-31T14:02:36;4.57;;;2.90;;
8654;SDS011;13500;52.514;13.462;2023-07-31T14:05:05;8.20;;;3.77;;
8654;SDS011;13500;52.514;13.462;2023-07-31T14:07:36;5.03;;;3.10;;
8654;SDS011;13500;52.514;13.462;2023-07-31T14:10:04;4.80;;;3.10;;
8654;SDS011;13500;52.514;13.462;2023-07-31T14:12:32;5.67;;;4.07;;
8654;SDS011;13500;52.514;13.462;2023-07-31T14:15:08;4.90;;;3.17;;
8654;SDS011;13500;52.514;13.462;2023-07-31T14:17:37;5.17;;;3.20;;
8654;SDS011;13500;52.514;13.462;2023-07-31T14:20:07;6.67;;;3.57;;
8654;SDS011;13500;52.514;13.462;2023-07-31T14:22:37;4.70;;;3.40;;
8654;SDS011;13500;52.514;13.462;2023-07-31T14:25:05;4.93;;;3.37;;
8654;SDS011;13500;52.514;13.462;2023-07-31T14:27:36;4.37;;;3.23;;
8654;SDS011;13500;52.514;13.462;2023-07-31T14:30:05;4.50;;;3.53;;
8654;SDS011;13500;52.514;13.462;2023-07-31T14:32:34;4.60;;;3.20;;
8654;SDS011;13500;52.514;13.462;2023-07-31T14:35:03;5.97;;;3.20;;
8654;SDS011;13500;52.514;13.462;2023-07-31T14:37:37;5.03;;;3.20;;
8654;SDS011;13500;52.514;13.462;2023-07-31T14:40:06;5.00;;;3.10;;
8654;SDS011;13500;52.514;13.462;2023-07-31T14:42:35;4.77;;;3.07;;
8654;SDS011;13500;52.514;13.462;2023-07-31T14:45:03;5.70;;;3.13;;
8654;SDS011;13500;52.514;13.462;2023-07-31T14:47:32;5.20;;;3.30;;
8654;SDS011;13500;52.514;13.462;2023-07-31T14:50:01;5.00;;;3.20;;
8654;SDS011;13500;52.514;13.462;2023-07-31T14:52:29;4.33;;;3.37;;
8654;SDS011;13500;52.514;13.462;2023-07-31T14:54:59;4.77;;;3.40;;
8654;SDS011;13500;52.514;13.462;2023-07-31T14:57:27;4.83;;;3.03;;
8654;SDS011;13500;52.514;13.462;2023-07-31T14:59:55;4.57;;;3.27;;